Northern Highway — 3EVE6 — position and weather

sailwx.info

Track history (hours):
 
Tides and Currents Weather Stations Pressure Air Temp Water Temp Dewpoint Dewpoint Depression Visibility Wind Speed Wind Dir Waves Ship Positions

Northern Highway

Last reported at 2016-Nov-28 10:09 UTC. Time now 2016-Dec-03 04:42 UTC.
Position N 34°06' E 134°57'.

Length 188 m; draft 7.2 m.

Type: Cargo ship. MMSI: 371608000.

Date/timePositionNaut miles runAvg speedWind from/ knotsBaromVisibWave heightAir tempDewpointWater temp
2016-Nov-28 10:09N 34°06' E 134°57'813.6
2016-Nov-28 09:33N 34°14' E 134°58'1515.4
2016-Nov-28 08:33N 34°27' E 135°07'1515.4
2016-Nov-28 07:33N 34°40' E 135°18'3 2.5
2016-Nov-28 06:32N 34°42' E 135°17'0 0.0
2016-Nov-28 05:32N 34°42' E 135°17'0 0.0
2016-Nov-28 04:26N 34°42' E 135°17'0 0.0
2016-Nov-28 03:32N 34°42' E 135°17'0 0.0
2016-Nov-28 02:32N 34°42' E 135°17'0 0.0
2016-Nov-28 01:26N 34°42' E 135°17'0 0.0
2016-Nov-28 00:32N 34°42' E 135°17'0 0.0
2016-Nov-27 23:32N 34°42' E 135°17'0 0.0
2016-Nov-27 22:32N 34°42' E 135°17'0 0.0
2016-Nov-27 21:32N 34°42' E 135°17'0 0.0
2016-Nov-27 20:32N 34°42' E 135°17'0 0.0
2016-Nov-27 19:20N 34°42' E 135°17'0 0.0
2016-Nov-27 18:26N 34°42' E 135°17'0 0.0
2016-Nov-27 17:32N 34°42' E 135°17'0 0.0
2016-Nov-27 16:14N 34°42' E 135°17'0 0.0
2016-Nov-27 15:32N 34°42' E 135°17'0 0.0
2016-Nov-27 14:14N 34°42' E 135°17'0 0.0
2016-Nov-27 13:32N 34°42' E 135°17'0 0.0
2016-Nov-27 12:32N 34°42' E 135°17'0 0.0
2016-Nov-27 11:32N 34°42' E 135°17'0 0.0
2016-Nov-27 10:32N 34°42' E 135°17'0 0.0
2016-Nov-27 09:32N 34°42' E 135°17'0 0.0
2016-Nov-27 08:32N 34°42' E 135°17'0 0.0
2016-Nov-27 07:20N 34°42' E 135°17'0 0.1
2016-Nov-27 06:32N 34°42' E 135°17'5 5.0
2016-Nov-27 05:33N 34°37' E 135°18'1514.6
2016-Nov-27 04:34N 34°26' E 135°07'1514.9
2016-Nov-27 03:33N 34°13' E 134°58'8 7.5
2016-Nov-27 02:34N 34°06' E 134°57'23612.9
2016-Nov-26 08:16N 34°60' E 139°36'1115.9
2016-Nov-26 07:33N 35°09' E 139°45'1111.0
2016-Nov-26 06:33N 35°20' E 139°43'8 7.2
2016-Nov-26 05:31N 35°27' E 139°41'0 0.0
2016-Nov-26 04:31N 35°27' E 139°41'0 0.0
2016-Nov-26 03:31N 35°27' E 139°41'0 0.0
2016-Nov-26 02:31N 35°27' E 139°41'0 0.0
2016-Nov-26 01:31N 35°27' E 139°41'0 0.0
2016-Nov-26 00:31N 35°27' E 139°41'0 0.0
2016-Nov-25 23:31N 35°27' E 139°41'0 0.0
2016-Nov-25 22:31N 35°27' E 139°41'0 0.3
2016-Nov-25 21:33N 35°27' E 139°41'2 2.3
2016-Nov-25 20:31N 35°25' E 139°42'0 0.0
2016-Nov-25 19:31N 35°25' E 139°42'0 0.0
2016-Nov-25 18:31N 35°25' E 139°42'0 0.0
2016-Nov-25 17:31N 35°25' E 139°42'0 0.0
2016-Nov-25 16:31N 35°25' E 139°42'0 0.0
2016-Nov-25 15:31N 35°25' E 139°42'0 0.0
2016-Nov-25 14:31N 35°25' E 139°42'0 0.0
2016-Nov-25 13:31N 35°25' E 139°42'0 0.0
2016-Nov-25 12:31N 35°25' E 139°42'0 0.0
2016-Nov-25 11:31N 35°25' E 139°42'0 0.0
2016-Nov-25 10:31N 35°25' E 139°42'0 0.0
2016-Nov-25 09:31N 35°25' E 139°42'0 0.0
2016-Nov-25 08:31N 35°25' E 139°42'0 0.0
2016-Nov-25 07:31N 35°25' E 139°42'0 0.0
2016-Nov-25 06:31N 35°25' E 139°42'0 0.0
2016-Nov-25 05:31N 35°25' E 139°42'0 0.0
2016-Nov-25 04:31N 35°25' E 139°42'0 0.0
2016-Nov-25 03:31N 35°25' E 139°42'0 0.0
2016-Nov-25 02:31N 35°25' E 139°42'0 0.0
2016-Nov-25 01:31N 35°25' E 139°42'5 5.3
2016-Nov-25 00:34N 35°20' E 139°43'1111.1
2016-Nov-24 23:34N 35°09' E 139°46'1211.7
2016-Nov-24 22:33N 34°58' E 139°40'  
2016-Nov-20 00:00N 31°24' E 167°06'19216.0 050 / 251022.5 5.4 21.216.123.4
2016-Nov-19 12:00N 30°54' E 170°48'19316.1 050 / 321020.5 2.2 19.017.524.3
2016-Nov-19 00:00N 30°24' E 174°30'   020 / 161017.7 5.4 27.325.1
Track history (hours):
 
Tides and Currents Weather Stations Pressure Air Temp Water Temp Dewpoint Dewpoint Depression Visibility Wind Speed Wind Dir Waves Ship Positions

Northern Highway

Last reported at 2016-Nov-28 10:09 UTC. Time now 2016-Dec-03 04:42 UTC.
Position N 34°06' E 134°57'.

Length 188 m; draft 7.2 m.

Type: Cargo ship. MMSI: 371608000.

Date/timePositionNaut miles runAvg speedWind from/ knotsBaromVisibWave heightAir tempDewpointWater temp
2016-Nov-28 10:09N 34°06' E 134°57'813.6
2016-Nov-28 09:33N 34°14' E 134°58'1515.4
2016-Nov-28 08:33N 34°27' E 135°07'1515.4
2016-Nov-28 07:33N 34°40' E 135°18'3 2.5
2016-Nov-28 06:32N 34°42' E 135°17'0 0.0
2016-Nov-28 05:32N 34°42' E 135°17'0 0.0
2016-Nov-28 04:26N 34°42' E 135°17'0 0.0
2016-Nov-28 03:32N 34°42' E 135°17'0 0.0
2016-Nov-28 02:32N 34°42' E 135°17'0 0.0
2016-Nov-28 01:26N 34°42' E 135°17'0 0.0
2016-Nov-28 00:32N 34°42' E 135°17'0 0.0
2016-Nov-27 23:32N 34°42' E 135°17'0 0.0
2016-Nov-27 22:32N 34°42' E 135°17'0 0.0
2016-Nov-27 21:32N 34°42' E 135°17'0 0.0
2016-Nov-27 20:32N 34°42' E 135°17'0 0.0
2016-Nov-27 19:20N 34°42' E 135°17'0 0.0
2016-Nov-27 18:26N 34°42' E 135°17'0 0.0
2016-Nov-27 17:32N 34°42' E 135°17'0 0.0
2016-Nov-27 16:14N 34°42' E 135°17'0 0.0
2016-Nov-27 15:32N 34°42' E 135°17'0 0.0
2016-Nov-27 14:14N 34°42' E 135°17'0 0.0
2016-Nov-27 13:32N 34°42' E 135°17'0 0.0
2016-Nov-27 12:32N 34°42' E 135°17'0 0.0
2016-Nov-27 11:32N 34°42' E 135°17'0 0.0
2016-Nov-27 10:32N 34°42' E 135°17'0 0.0
2016-Nov-27 09:32N 34°42' E 135°17'0 0.0
2016-Nov-27 08:32N 34°42' E 135°17'0 0.0
2016-Nov-27 07:20N 34°42' E 135°17'0 0.1
2016-Nov-27 06:32N 34°42' E 135°17'5 5.0
2016-Nov-27 05:33N 34°37' E 135°18'1514.6
2016-Nov-27 04:34N 34°26' E 135°07'1514.9
2016-Nov-27 03:33N 34°13' E 134°58'8 7.5
2016-Nov-27 02:34N 34°06' E 134°57'23612.9
2016-Nov-26 08:16N 34°60' E 139°36'1115.9
2016-Nov-26 07:33N 35°09' E 139°45'1111.0
2016-Nov-26 06:33N 35°20' E 139°43'8 7.2
2016-Nov-26 05:31N 35°27' E 139°41'0 0.0
2016-Nov-26 04:31N 35°27' E 139°41'0 0.0
2016-Nov-26 03:31N 35°27' E 139°41'0 0.0
2016-Nov-26 02:31N 35°27' E 139°41'0 0.0
2016-Nov-26 01:31N 35°27' E 139°41'0 0.0
2016-Nov-26 00:31N 35°27' E 139°41'0 0.0
2016-Nov-25 23:31N 35°27' E 139°41'0 0.0
2016-Nov-25 22:31N 35°27' E 139°41'0 0.3
2016-Nov-25 21:33N 35°27' E 139°41'2 2.3
2016-Nov-25 20:31N 35°25' E 139°42'0 0.0
2016-Nov-25 19:31N 35°25' E 139°42'0 0.0
2016-Nov-25 18:31N 35°25' E 139°42'0 0.0
2016-Nov-25 17:31N 35°25' E 139°42'0 0.0
2016-Nov-25 16:31N 35°25' E 139°42'0 0.0
2016-Nov-25 15:31N 35°25' E 139°42'0 0.0
2016-Nov-25 14:31N 35°25' E 139°42'0 0.0
2016-Nov-25 13:31N 35°25' E 139°42'0 0.0
2016-Nov-25 12:31N 35°25' E 139°42'0 0.0
2016-Nov-25 11:31N 35°25' E 139°42'0 0.0
2016-Nov-25 10:31N 35°25' E 139°42'0 0.0
2016-Nov-25 09:31N 35°25' E 139°42'0 0.0
2016-Nov-25 08:31N 35°25' E 139°42'0 0.0
2016-Nov-25 07:31N 35°25' E 139°42'0 0.0
2016-Nov-25 06:31N 35°25' E 139°42'0 0.0
2016-Nov-25 05:31N 35°25' E 139°42'0 0.0
2016-Nov-25 04:31N 35°25' E 139°42'0 0.0
2016-Nov-25 03:31N 35°25' E 139°42'0 0.0
2016-Nov-25 02:31N 35°25' E 139°42'0 0.0
2016-Nov-25 01:31N 35°25' E 139°42'5 5.3
2016-Nov-25 00:34N 35°20' E 139°43'1111.1
2016-Nov-24 23:34N 35°09' E 139°46'1211.7
2016-Nov-24 22:33N 34°58' E 139°40'  
2016-Nov-20 00:00N 31°24' E 167°06'19216.0 050 / 251022.5 5.4 21.216.123.4
2016-Nov-19 12:00N 30°54' E 170°48'19316.1 050 / 321020.5 2.2 19.017.524.3
2016-Nov-19 00:00N 30°24' E 174°30'   020 / 161017.7 5.4 27.325.1

Dump ship's entire track history